sensor_id;sensor_type;location;lat;lon;timestamp;P1;durP1;ratioP1;P2;durP2;ratioP2
2225;SDS011;1119;48.288;8.726;2022-09-04T00:01:36;7.73;;;7.13;;
2225;SDS011;1119;48.288;8.726;2022-09-04T00:04:13;7.57;;;6.97;;
2225;SDS011;1119;48.288;8.726;2022-09-04T00:06:53;7.73;;;7.03;;
2225;SDS011;1119;48.288;8.726;2022-09-04T00:09:31;6.70;;;6.30;;
2225;SDS011;1119;48.288;8.726;2022-09-04T00:12:06;7.67;;;6.97;;
2225;SDS011;1119;48.288;8.726;2022-09-04T00:14:36;7.03;;;6.53;;
2225;SDS011;1119;48.288;8.726;2022-09-04T00:17:12;6.60;;;6.20;;
2225;SDS011;1119;48.288;8.726;2022-09-04T00:19:46;7.40;;;6.90;;
2225;SDS011;1119;48.288;8.726;2022-09-04T00:22:23;7.17;;;6.77;;
2225;SDS011;1119;48.288;8.726;2022-09-04T00:24:59;8.97;;;6.37;;
2225;SDS011;1119;48.288;8.726;2022-09-04T00:27:48;6.17;;;5.77;;
2225;SDS011;1119;48.288;8.726;2022-09-04T00:30:21;6.20;;;5.90;;
2225;SDS011;1119;48.288;8.726;2022-09-04T00:32:50;6.90;;;6.40;;
2225;SDS011;1119;48.288;8.726;2022-09-04T00:35:26;6.50;;;6.10;;
2225;SDS011;1119;48.288;8.726;2022-09-04T00:37:57;7.07;;;6.40;;
2225;SDS011;1119;48.288;8.726;2022-09-04T00:40:29;7.47;;;6.97;;
2225;SDS011;1119;48.288;8.726;2022-09-04T00:46:36;7.40;;;7.00;;
2225;SDS011;1119;48.288;8.726;2022-09-04T00:49:36;6.97;;;6.57;;
2225;SDS011;1119;48.288;8.726;2022-09-04T00:52:30;6.37;;;5.97;;
2225;SDS011;1119;48.288;8.726;2022-09-04T00:55:19;7.53;;;7.03;;
2225;SDS011;1119;48.288;8.726;2022-09-04T00:58:07;7.50;;;6.70;;
2225;SDS011;1119;48.288;8.726;2022-09-04T01:00:43;7.10;;;6.50;;
2225;SDS011;1119;48.288;8.726;2022-09-04T01:06:31;7.63;;;7.13;;
2225;SDS011;1119;48.288;8.726;2022-09-04T01:09:16;8.03;;;7.53;;
2225;SDS011;1119;48.288;8.726;2022-09-04T01:12:04;7.03;;;6.53;;
2225;SDS011;1119;48.288;8.726;2022-09-04T01:14:44;7.07;;;6.57;;
2225;SDS011;1119;48.288;8.726;2022-09-04T01:17:22;8.37;;;7.27;;
2225;SDS011;1119;48.288;8.726;2022-09-04T01:20:00;7.87;;;7.27;;
2225;SDS011;1119;48.288;8.726;2022-09-04T01:25:53;8.97;;;8.07;;
2225;SDS011;1119;48.288;8.726;2022-09-04T01:28:31;6.97;;;6.57;;
2225;SDS011;1119;48.288;8.726;2022-09-04T01:31:12;7.50;;;7.00;;
2225;SDS011;1119;48.288;8.726;2022-09-04T01:33:52;7.23;;;6.70;;
2225;SDS011;1119;48.288;8.726;2022-09-04T01:36:34;6.77;;;6.37;;
2225;SDS011;1119;48.288;8.726;2022-09-04T01:39:07;7.50;;;6.90;;
2225;SDS011;1119;48.288;8.726;2022-09-04T01:41:37;6.77;;;6.27;;
2225;SDS011;1119;48.288;8.726;2022-09-04T01:44:09;7.23;;;6.77;;
2225;SDS011;1119;48.288;8.726;2022-09-04T01:46:39;7.77;;;7.17;;
2225;SDS011;1119;48.288;8.726;2022-09-04T01:49:17;6.67;;;6.27;;
2225;SDS011;1119;48.288;8.726;2022-09-04T01:51:58;6.97;;;6.57;;
2225;SDS011;1119;48.288;8.726;2022-09-04T01:54:44;8.73;;;8.13;;
2225;SDS011;1119;48.288;8.726;2022-09-04T02:00:18;7.50;;;6.77;;
2225;SDS011;1119;48.288;8.726;2022-09-04T02:02:55;7.40;;;6.80;;
2225;SDS011;1119;48.288;8.726;2022-09-04T02:05:31;7.13;;;6.53;;
2225;SDS011;1119;48.288;8.726;2022-09-04T02:08:25;7.37;;;6.77;;
2225;SDS011;1119;48.288;8.726;2022-09-04T02:11:14;8.17;;;7.37;;
2225;SDS011;1119;48.288;8.726;2022-09-04T02:13:48;7.70;;;7.20;;
2225;SDS011;1119;48.288;8.726;2022-09-04T02:16:46;8.23;;;7.70;;
2225;SDS011;1119;48.288;8.726;2022-09-04T02:19:32;8.70;;;7.30;;
2225;SDS011;1119;48.288;8.726;2022-09-04T02:22:10;7.73;;;7.13;;
2225;SDS011;1119;48.288;8.726;2022-09-04T02:24:50;8.00;;;7.40;;
2225;SDS011;1119;48.288;8.726;2022-09-04T02:27:28;6.80;;;6.40;;
2225;SDS011;1119;48.288;8.726;2022-09-04T02:30:04;6.70;;;6.30;;
2225;SDS011;1119;48.288;8.726;2022-09-04T02:32:35;7.23;;;6.83;;
2225;SDS011;1119;48.288;8.726;2022-09-04T02:35:08;6.77;;;6.37;;
2225;SDS011;1119;48.288;8.726;2022-09-04T02:37:44;7.93;;;7.43;;
2225;SDS011;1119;48.288;8.726;2022-09-04T02:40:25;8.33;;;7.67;;
2225;SDS011;1119;48.288;8.726;2022-09-04T02:43:04;8.07;;;7.50;;
2225;SDS011;1119;48.288;8.726;2022-09-04T02:45:49;8.00;;;7.50;;
2225;SDS011;1119;48.288;8.726;2022-09-04T02:48:27;7.00;;;6.60;;
2225;SDS011;1119;48.288;8.726;2022-09-04T02:51:10;7.60;;;7.00;;
2225;SDS011;1119;48.288;8.726;2022-09-04T02:53:53;7.10;;;6.70;;
2225;SDS011;1119;48.288;8.726;2022-09-04T02:56:31;6.97;;;6.47;;
2225;SDS011;1119;48.288;8.726;2022-09-04T02:59:14;7.20;;;6.70;;
2225;SDS011;1119;48.288;8.726;2022-09-04T03:01:55;7.67;;;6.90;;
2225;SDS011;1119;48.288;8.726;2022-09-04T03:04:27;7.43;;;6.93;;
2225;SDS011;1119;48.288;8.726;2022-09-04T03:07:04;7.53;;;7.03;;
2225;SDS011;1119;48.288;8.726;2022-09-04T03:09:38;7.60;;;6.90;;
2225;SDS011;1119;48.288;8.726;2022-09-04T03:12:18;7.20;;;6.63;;
2225;SDS011;1119;48.288;8.726;2022-09-04T03:14:58;7.60;;;7.00;;
2225;SDS011;1119;48.288;8.726;2022-09-04T03:17:35;6.67;;;6.27;;
2225;SDS011;1119;48.288;8.726;2022-09-04T03:20:14;7.50;;;7.10;;
2225;SDS011;1119;48.288;8.726;2022-09-04T03:22:48;7.40;;;6.90;;
2225;SDS011;1119;48.288;8.726;2022-09-04T03:28:23;7.00;;;6.50;;
2225;SDS011;1119;48.288;8.726;2022-09-04T03:31:00;7.90;;;7.30;;
2225;SDS011;1119;48.288;8.726;2022-09-04T03:33:40;7.70;;;7.20;;
2225;SDS011;1119;48.288;8.726;2022-09-04T03:36:12;6.90;;;6.50;;
2225;SDS011;1119;48.288;8.726;2022-09-04T03:38:50;8.17;;;7.47;;
2225;SDS011;1119;48.288;8.726;2022-09-04T03:41:30;7.70;;;7.20;;
2225;SDS011;1119;48.288;8.726;2022-09-04T03:44:11;6.03;;;5.73;;
2225;SDS011;1119;48.288;8.726;2022-09-04T03:46:51;6.57;;;6.07;;
2225;SDS011;1119;48.288;8.726;2022-09-04T03:49:33;6.93;;;6.53;;
2225;SDS011;1119;48.288;8.726;2022-09-04T03:52:12;6.30;;;5.80;;
2225;SDS011;1119;48.288;8.726;2022-09-04T03:54:49;6.93;;;6.43;;
2225;SDS011;1119;48.288;8.726;2022-09-04T03:57:50;6.97;;;6.47;;
2225;SDS011;1119;48.288;8.726;2022-09-04T04:00:27;7.90;;;7.20;;
2225;SDS011;1119;48.288;8.726;2022-09-04T04:03:15;8.33;;;7.50;;
2225;SDS011;1119;48.288;8.726;2022-09-04T04:06:15;7.67;;;6.60;;
2225;SDS011;1119;48.288;8.726;2022-09-04T04:08:58;6.73;;;6.27;;
2225;SDS011;1119;48.288;8.726;2022-09-04T04:11:45;5.97;;;5.67;;
2225;SDS011;1119;48.288;8.726;2022-09-04T04:14:56;6.67;;;6.10;;
2225;SDS011;1119;48.288;8.726;2022-09-04T04:17:52;6.13;;;5.53;;
2225;SDS011;1119;48.288;8.726;2022-09-04T04:20:40;6.40;;;5.90;;
2225;SDS011;1119;48.288;8.726;2022-09-04T04:23:44;7.13;;;6.63;;
2225;SDS011;1119;48.288;8.726;2022-09-04T04:26:42;7.07;;;6.67;;
2225;SDS011;1119;48.288;8.726;2022-09-04T04:32:25;6.80;;;6.37;;
2225;SDS011;1119;48.288;8.726;2022-09-04T04:35:08;7.50;;;7.00;;
2225;SDS011;1119;48.288;8.726;2022-09-04T04:37:47;6.57;;;6.17;;
2225;SDS011;1119;48.288;8.726;2022-09-04T04:40:32;7.73;;;5.83;;
2225;SDS011;1119;48.288;8.726;2022-09-04T04:43:18;6.17;;;5.67;;
2225;SDS011;1119;48.288;8.726;2022-09-04T04:45:54;7.13;;;6.67;;
2225;SDS011;1119;48.288;8.726;2022-09-04T04:48:42;6.03;;;5.67;;
2225;SDS011;1119;48.288;8.726;2022-09-04T04:54:51;8.27;;;7.57;;
2225;SDS011;1119;48.288;8.726;2022-09-04T04:57:33;8.20;;;7.50;;
2225;SDS011;1119;48.288;8.726;2022-09-04T05:00:10;7.73;;;7.20;;
2225;SDS011;1119;48.288;8.726;2022-09-04T05:02:45;7.53;;;6.90;;
2225;SDS011;1119;48.288;8.726;2022-09-04T05:05:40;6.97;;;6.47;;
2225;SDS011;1119;48.288;8.726;2022-09-04T05:08:20;7.03;;;6.43;;
2225;SDS011;1119;48.288;8.726;2022-09-04T05:10:59;6.80;;;6.30;;
2225;SDS011;1119;48.288;8.726;2022-09-04T05:13:36;5.87;;;5.57;;
2225;SDS011;1119;48.288;8.726;2022-09-04T05:16:13;6.60;;;6.10;;
2225;SDS011;1119;48.288;8.726;2022-09-04T05:18:51;6.73;;;6.33;;
2225;SDS011;1119;48.288;8.726;2022-09-04T05:21:27;6.90;;;6.40;;
2225;SDS011;1119;48.288;8.726;2022-09-04T05:24:01;7.17;;;6.47;;
2225;SDS011;1119;48.288;8.726;2022-09-04T05:26:35;7.03;;;6.63;;
2225;SDS011;1119;48.288;8.726;2022-09-04T05:29:12;7.00;;;6.60;;
2225;SDS011;1119;48.288;8.726;2022-09-04T05:31:50;6.57;;;6.17;;
2225;SDS011;1119;48.288;8.726;2022-09-04T05:34:28;6.73;;;6.23;;
2225;SDS011;1119;48.288;8.726;2022-09-04T05:37:15;7.40;;;6.80;;
2225;SDS011;1119;48.288;8.726;2022-09-04T05:39:48;6.87;;;6.47;;
2225;SDS011;1119;48.288;8.726;2022-09-04T05:42:40;7.30;;;6.80;;
2225;SDS011;1119;48.288;8.726;2022-09-04T05:45:19;8.47;;;7.87;;
2225;SDS011;1119;48.288;8.726;2022-09-04T05:47:55;7.23;;;6.73;;
2225;SDS011;1119;48.288;8.726;2022-09-04T05:50:35;7.00;;;6.50;;
2225;SDS011;1119;48.288;8.726;2022-09-04T05:53:50;6.70;;;6.20;;
2225;SDS011;1119;48.288;8.726;2022-09-04T05:56:57;6.83;;;6.43;;
2225;SDS011;1119;48.288;8.726;2022-09-04T05:59:57;5.70;;;5.40;;
2225;SDS011;1119;48.288;8.726;2022-09-04T06:03:03;7.10;;;6.63;;
2225;SDS011;1119;48.288;8.726;2022-09-04T06:06:10;6.50;;;6.00;;
2225;SDS011;1119;48.288;8.726;2022-09-04T06:08:56;6.37;;;6.00;;
2225;SDS011;1119;48.288;8.726;2022-09-04T06:11:55;6.53;;;6.20;;
2225;SDS011;1119;48.288;8.726;2022-09-04T06:14:49;6.50;;;6.10;;
2225;SDS011;1119;48.288;8.726;2022-09-04T06:17:33;6.73;;;6.33;;
2225;SDS011;1119;48.288;8.726;2022-09-04T06:20:17;6.60;;;6.20;;
2225;SDS011;1119;48.288;8.726;2022-09-04T06:23:19;7.23;;;6.80;;
2225;SDS011;1119;48.288;8.726;2022-09-04T06:29:27;6.60;;;6.30;;
2225;SDS011;1119;48.288;8.726;2022-09-04T06:32:15;6.93;;;6.47;;
2225;SDS011;1119;48.288;8.726;2022-09-04T06:38:02;7.05;;;6.75;;
2225;SDS011;1119;48.288;8.726;2022-09-04T06:53:51;7.10;;;6.67;;
2225;SDS011;1119;48.288;8.726;2022-09-04T06:56:31;6.47;;;6.17;;
2225;SDS011;1119;48.288;8.726;2022-09-04T06:59:16;7.20;;;6.90;;
2225;SDS011;1119;48.288;8.726;2022-09-04T07:02:15;6.10;;;5.80;;
2225;SDS011;1119;48.288;8.726;2022-09-04T07:04:59;7.63;;;7.13;;
2225;SDS011;1119;48.288;8.726;2022-09-04T07:07:37;6.90;;;6.60;;
2225;SDS011;1119;48.288;8.726;2022-09-04T07:10:15;5.80;;;5.60;;
2225;SDS011;1119;48.288;8.726;2022-09-04T07:16:02;6.73;;;6.43;;
2225;SDS011;1119;48.288;8.726;2022-09-04T07:18:47;6.23;;;6.00;;
2225;SDS011;1119;48.288;8.726;2022-09-04T07:21:39;5.90;;;5.70;;
2225;SDS011;1119;48.288;8.726;2022-09-04T07:27:11;7.20;;;6.80;;
2225;SDS011;1119;48.288;8.726;2022-09-04T07:29:47;7.43;;;7.03;;
2225;SDS011;1119;48.288;8.726;2022-09-04T07:32:22;6.10;;;5.90;;
2225;SDS011;1119;48.288;8.726;2022-09-04T07:34:55;6.70;;;6.13;;
2225;SDS011;1119;48.288;8.726;2022-09-04T07:37:28;6.13;;;5.90;;
2225;SDS011;1119;48.288;8.726;2022-09-04T07:40:05;6.40;;;6.00;;
2225;SDS011;1119;48.288;8.726;2022-09-04T07:42:43;5.53;;;5.33;;
2225;SDS011;1119;48.288;8.726;2022-09-04T07:45:29;6.07;;;5.77;;
2225;SDS011;1119;48.288;8.726;2022-09-04T07:48:06;5.90;;;5.70;;
2225;SDS011;1119;48.288;8.726;2022-09-04T07:50:56;6.30;;;5.83;;
2225;SDS011;1119;48.288;8.726;2022-09-04T07:53:41;6.00;;;5.70;;
2225;SDS011;1119;48.288;8.726;2022-09-04T07:56:46;5.47;;;5.17;;
2225;SDS011;1119;48.288;8.726;2022-09-04T07:59:39;6.37;;;6.07;;
2225;SDS011;1119;48.288;8.726;2022-09-04T08:02:36;7.03;;;6.53;;
2225;SDS011;1119;48.288;8.726;2022-09-04T08:05:21;6.03;;;5.73;;
2225;SDS011;1119;48.288;8.726;2022-09-04T08:08:14;6.60;;;6.30;;
2225;SDS011;1119;48.288;8.726;2022-09-04T08:13:51;6.07;;;5.87;;
2225;SDS011;1119;48.288;8.726;2022-09-04T08:16:44;6.10;;;5.90;;
2225;SDS011;1119;48.288;8.726;2022-09-04T08:19:27;6.40;;;6.10;;
2225;SDS011;1119;48.288;8.726;2022-09-04T08:22:05;5.97;;;5.67;;
2225;SDS011;1119;48.288;8.726;2022-09-04T08:24:44;7.27;;;6.87;;
2225;SDS011;1119;48.288;8.726;2022-09-04T08:27:36;6.67;;;6.27;;
2225;SDS011;1119;48.288;8.726;2022-09-04T08:30:28;6.67;;;6.37;;
2225;SDS011;1119;48.288;8.726;2022-09-04T08:36:26;5.80;;;5.60;;
2225;SDS011;1119;48.288;8.726;2022-09-04T08:39:02;5.77;;;5.57;;
2225;SDS011;1119;48.288;8.726;2022-09-04T08:41:50;6.10;;;5.80;;
2225;SDS011;1119;48.288;8.726;2022-09-04T08:45:11;5.70;;;5.50;;
2225;SDS011;1119;48.288;8.726;2022-09-04T08:48:36;6.20;;;5.80;;
2225;SDS011;1119;48.288;8.726;2022-09-04T08:51:53;6.07;;;5.77;;
2225;SDS011;1119;48.288;8.726;2022-09-04T09:01:37;5.60;;;5.40;;
2225;SDS011;1119;48.288;8.726;2022-09-04T09:04:55;5.23;;;5.03;;
2225;SDS011;1119;48.288;8.726;2022-09-04T09:11:41;4.80;;;4.60;;
2225;SDS011;1119;48.288;8.726;2022-09-04T09:17:45;6.03;;;5.63;;
2225;SDS011;1119;48.288;8.726;2022-09-04T09:20:28;5.30;;;5.00;;
2225;SDS011;1119;48.288;8.726;2022-09-04T09:23:17;5.20;;;5.00;;
2225;SDS011;1119;48.288;8.726;2022-09-04T09:25:59;5.40;;;5.13;;
2225;SDS011;1119;48.288;8.726;2022-09-04T09:35:45;4.50;;;4.30;;
2225;SDS011;1119;48.288;8.726;2022-09-04T09:38:47;4.73;;;4.47;;
2225;SDS011;1119;48.288;8.726;2022-09-04T09:41:40;4.47;;;4.27;;
2225;SDS011;1119;48.288;8.726;2022-09-04T09:44:54;4.00;;;3.90;;
2225;SDS011;1119;48.288;8.726;2022-09-04T09:48:08;4.50;;;4.30;;
2225;SDS011;1119;48.288;8.726;2022-09-04T09:51:22;4.67;;;4.47;;
2225;SDS011;1119;48.288;8.726;2022-09-04T09:54:21;4.03;;;3.83;;
2225;SDS011;1119;48.288;8.726;2022-09-04T09:57:19;4.90;;;4.70;;
2225;SDS011;1119;48.288;8.726;2022-09-04T10:00:13;4.63;;;4.43;;
2225;SDS011;1119;48.288;8.726;2022-09-04T10:09:27;5.30;;;5.10;;
2225;SDS011;1119;48.288;8.726;2022-09-04T10:12:44;4.17;;;3.97;;
2225;SDS011;1119;48.288;8.726;2022-09-04T10:15:57;4.20;;;4.10;;
2225;SDS011;1119;48.288;8.726;2022-09-04T10:25:24;3.90;;;3.80;;
2225;SDS011;1119;48.288;8.726;2022-09-04T10:28:52;4.00;;;3.70;;
2225;SDS011;1119;48.288;8.726;2022-09-04T10:32:18;4.13;;;3.93;;
2225;SDS011;1119;48.288;8.726;2022-09-04T10:35:21;4.37;;;4.17;;
2225;SDS011;1119;48.288;8.726;2022-09-04T10:37:56;4.50;;;4.30;;
2225;SDS011;1119;48.288;8.726;2022-09-04T10:41:08;4.13;;;4.03;;
2225;SDS011;1119;48.288;8.726;2022-09-04T10:47:10;4.53;;;4.30;;
2225;SDS011;1119;48.288;8.726;2022-09-04T10:49:56;4.00;;;3.70;;
2225;SDS011;1119;48.288;8.726;2022-09-04T10:53:13;3.10;;;3.00;;
2225;SDS011;1119;48.288;8.726;2022-09-04T10:56:04;3.80;;;3.70;;
2225;SDS011;1119;48.288;8.726;2022-09-04T10:58:47;3.73;;;3.53;;
2225;SDS011;1119;48.288;8.726;2022-09-04T11:02:00;4.00;;;3.80;;
2225;SDS011;1119;48.288;8.726;2022-09-04T11:05:04;4.40;;;4.10;;
2225;SDS011;1119;48.288;8.726;2022-09-04T11:07:52;4.00;;;3.80;;
2225;SDS011;1119;48.288;8.726;2022-09-04T11:10:52;3.53;;;3.43;;
2225;SDS011;1119;48.288;8.726;2022-09-04T11:17:03;3.47;;;3.37;;
2225;SDS011;1119;48.288;8.726;2022-09-04T11:23:45;4.03;;;3.83;;
2225;SDS011;1119;48.288;8.726;2022-09-04T11:27:00;4.07;;;3.87;;
2225;SDS011;1119;48.288;8.726;2022-09-04T11:30:15;4.80;;;4.50;;
2225;SDS011;1119;48.288;8.726;2022-09-04T11:32:55;4.33;;;4.13;;
2225;SDS011;1119;48.288;8.726;2022-09-04T11:36:16;4.57;;;4.37;;
2225;SDS011;1119;48.288;8.726;2022-09-04T11:39:24;3.93;;;3.83;;
2225;SDS011;1119;48.288;8.726;2022-09-04T11:42:38;3.93;;;3.83;;
2225;SDS011;1119;48.288;8.726;2022-09-04T11:51:49;4.90;;;4.70;;
2225;SDS011;1119;48.288;8.726;2022-09-04T11:54:51;6.70;;;4.37;;
2225;SDS011;1119;48.288;8.726;2022-09-04T12:00:49;4.37;;;4.13;;
2225;SDS011;1119;48.288;8.726;2022-09-04T12:03:33;5.10;;;4.90;;
2225;SDS011;1119;48.288;8.726;2022-09-04T12:06:29;4.40;;;4.20;;
2225;SDS011;1119;48.288;8.726;2022-09-04T12:09:29;5.53;;;5.23;;
2225;SDS011;1119;48.288;8.726;2022-09-04T12:18:30;5.30;;;5.00;;
2225;SDS011;1119;48.288;8.726;2022-09-04T12:31:08;5.53;;;5.23;;
2225;SDS011;1119;48.288;8.726;2022-09-04T12:33:59;4.30;;;4.20;;
2225;SDS011;1119;48.288;8.726;2022-09-04T12:40:04;4.70;;;4.47;;
2225;SDS011;1119;48.288;8.726;2022-09-04T12:42:49;3.90;;;3.80;;
2225;SDS011;1119;48.288;8.726;2022-09-04T12:45:28;5.40;;;5.20;;
2225;SDS011;1119;48.288;8.726;2022-09-04T12:48:08;4.50;;;4.30;;
2225;SDS011;1119;48.288;8.726;2022-09-04T12:50:47;4.90;;;4.70;;
2225;SDS011;1119;48.288;8.726;2022-09-04T12:56:36;5.70;;;5.33;;
2225;SDS011;1119;48.288;8.726;2022-09-04T13:02:12;4.93;;;4.73;;
2225;SDS011;1119;48.288;8.726;2022-09-04T13:04:54;5.33;;;5.13;;
2225;SDS011;1119;48.288;8.726;2022-09-04T13:07:43;4.77;;;4.57;;
2225;SDS011;1119;48.288;8.726;2022-09-04T13:10:21;4.50;;;4.30;;
2225;SDS011;1119;48.288;8.726;2022-09-04T13:13:00;4.47;;;4.20;;
2225;SDS011;1119;48.288;8.726;2022-09-04T13:15:42;4.67;;;4.47;;
2225;SDS011;1119;48.288;8.726;2022-09-04T13:18:26;4.70;;;4.50;;
2225;SDS011;1119;48.288;8.726;2022-09-04T13:21:14;4.53;;;4.33;;
2225;SDS011;1119;48.288;8.726;2022-09-04T13:24:03;4.70;;;4.50;;
2225;SDS011;1119;48.288;8.726;2022-09-04T13:26:46;4.70;;;4.50;;
2225;SDS011;1119;48.288;8.726;2022-09-04T13:29:31;4.43;;;4.23;;
2225;SDS011;1119;48.288;8.726;2022-09-04T13:32:18;4.43;;;4.23;;
2225;SDS011;1119;48.288;8.726;2022-09-04T13:35:38;4.33;;;4.13;;
2225;SDS011;1119;48.288;8.726;2022-09-04T13:38:35;4.50;;;4.40;;
2225;SDS011;1119;48.288;8.726;2022-09-04T13:41:38;4.70;;;4.50;;
2225;SDS011;1119;48.288;8.726;2022-09-04T13:44:55;4.43;;;4.23;;
2225;SDS011;1119;48.288;8.726;2022-09-04T13:47:35;4.60;;;4.40;;
2225;SDS011;1119;48.288;8.726;2022-09-04T13:50:13;5.37;;;5.00;;
2225;SDS011;1119;48.288;8.726;2022-09-04T13:52:47;4.37;;;4.17;;
2225;SDS011;1119;48.288;8.726;2022-09-04T13:55:21;3.63;;;3.53;;
2225;SDS011;1119;48.288;8.726;2022-09-04T13:57:51;3.70;;;3.50;;
2225;SDS011;1119;48.288;8.726;2022-09-04T14:00:26;7.93;;;7.43;;
2225;SDS011;1119;48.288;8.726;2022-09-04T14:02:59;4.33;;;4.10;;
2225;SDS011;1119;48.288;8.726;2022-09-04T14:05:32;4.80;;;4.60;;
2225;SDS011;1119;48.288;8.726;2022-09-04T14:08:03;4.10;;;4.00;;
2225;SDS011;1119;48.288;8.726;2022-09-04T14:10:44;3.77;;;3.67;;
2225;SDS011;1119;48.288;8.726;2022-09-04T14:13:33;4.97;;;4.73;;
2225;SDS011;1119;48.288;8.726;2022-09-04T14:16:16;4.73;;;4.53;;
2225;SDS011;1119;48.288;8.726;2022-09-04T14:18:55;4.00;;;3.70;;
2225;SDS011;1119;48.288;8.726;2022-09-04T14:22:00;4.07;;;3.93;;
2225;SDS011;1119;48.288;8.726;2022-09-04T14:24:43;3.73;;;3.63;;
2225;SDS011;1119;48.288;8.726;2022-09-04T14:27:21;5.40;;;5.10;;
2225;SDS011;1119;48.288;8.726;2022-09-04T14:29:59;3.80;;;3.60;;
2225;SDS011;1119;48.288;8.726;2022-09-04T14:32:34;5.03;;;4.70;;
2225;SDS011;1119;48.288;8.726;2022-09-04T14:35:20;3.90;;;3.80;;
2225;SDS011;1119;48.288;8.726;2022-09-04T14:38:15;4.37;;;4.17;;
2225;SDS011;1119;48.288;8.726;2022-09-04T14:41:08;4.00;;;3.80;;
2225;SDS011;1119;48.288;8.726;2022-09-04T14:43:55;3.90;;;3.70;;
2225;SDS011;1119;48.288;8.726;2022-09-04T14:46:35;4.63;;;4.43;;
2225;SDS011;1119;48.288;8.726;2022-09-04T14:49:11;4.30;;;4.10;;
2225;SDS011;1119;48.288;8.726;2022-09-04T14:51:46;4.43;;;4.23;;
2225;SDS011;1119;48.288;8.726;2022-09-04T14:54:23;5.93;;;4.13;;
2225;SDS011;1119;48.288;8.726;2022-09-04T14:56:55;4.17;;;3.97;;
2225;SDS011;1119;48.288;8.726;2022-09-04T14:59:26;4.40;;;4.20;;
2225;SDS011;1119;48.288;8.726;2022-09-04T15:02:09;4.37;;;4.23;;
2225;SDS011;1119;48.288;8.726;2022-09-04T15:04:46;4.37;;;3.97;;
2225;SDS011;1119;48.288;8.726;2022-09-04T15:07:23;4.20;;;4.10;;
2225;SDS011;1119;48.288;8.726;2022-09-04T15:10:15;4.90;;;4.70;;
2225;SDS011;1119;48.288;8.726;2022-09-04T15:13:05;4.20;;;4.00;;
2225;SDS011;1119;48.288;8.726;2022-09-04T15:16:07;4.27;;;4.07;;
2225;SDS011;1119;48.288;8.726;2022-09-04T15:18:45;4.83;;;4.63;;
2225;SDS011;1119;48.288;8.726;2022-09-04T15:21:23;4.80;;;4.50;;
2225;SDS011;1119;48.288;8.726;2022-09-04T15:24:02;4.20;;;4.00;;
2225;SDS011;1119;48.288;8.726;2022-09-04T15:26:41;4.17;;;3.97;;
2225;SDS011;1119;48.288;8.726;2022-09-04T15:29:15;4.17;;;4.00;;
2225;SDS011;1119;48.288;8.726;2022-09-04T15:31:57;4.57;;;4.30;;
2225;SDS011;1119;48.288;8.726;2022-09-04T15:34:26;4.63;;;4.43;;
2225;SDS011;1119;48.288;8.726;2022-09-04T15:36:54;4.47;;;4.27;;
2225;SDS011;1119;48.288;8.726;2022-09-04T15:39:38;3.90;;;3.80;;
2225;SDS011;1119;48.288;8.726;2022-09-04T15:42:30;4.00;;;3.83;;
2225;SDS011;1119;48.288;8.726;2022-09-04T15:45:04;4.63;;;4.43;;
2225;SDS011;1119;48.288;8.726;2022-09-04T15:47:44;4.57;;;4.37;;
2225;SDS011;1119;48.288;8.726;2022-09-04T15:50:34;4.37;;;4.20;;
2225;SDS011;1119;48.288;8.726;2022-09-04T15:53:14;4.40;;;4.20;;
2225;SDS011;1119;48.288;8.726;2022-09-04T15:55:52;4.30;;;4.10;;
2225;SDS011;1119;48.288;8.726;2022-09-04T15:58:34;4.00;;;3.90;;
2225;SDS011;1119;48.288;8.726;2022-09-04T16:01:17;4.07;;;3.97;;
2225;SDS011;1119;48.288;8.726;2022-09-04T16:03:53;4.00;;;3.90;;
2225;SDS011;1119;48.288;8.726;2022-09-04T16:06:29;4.27;;;4.17;;
2225;SDS011;1119;48.288;8.726;2022-09-04T16:09:03;4.50;;;4.20;;
2225;SDS011;1119;48.288;8.726;2022-09-04T16:11:37;4.47;;;4.27;;
2225;SDS011;1119;48.288;8.726;2022-09-04T16:14:09;4.53;;;4.17;;
2225;SDS011;1119;48.288;8.726;2022-09-04T16:16:44;4.53;;;4.33;;
2225;SDS011;1119;48.288;8.726;2022-09-04T16:19:22;5.03;;;4.83;;
2225;SDS011;1119;48.288;8.726;2022-09-04T16:21:57;4.10;;;4.00;;
2225;SDS011;1119;48.288;8.726;2022-09-04T16:24:38;4.60;;;4.40;;
2225;SDS011;1119;48.288;8.726;2022-09-04T16:27:13;4.30;;;4.10;;
2225;SDS011;1119;48.288;8.726;2022-09-04T16:29:44;4.10;;;3.93;;
2225;SDS011;1119;48.288;8.726;2022-09-04T16:32:17;4.70;;;4.40;;
2225;SDS011;1119;48.288;8.726;2022-09-04T16:34:47;4.67;;;4.37;;
2225;SDS011;1119;48.288;8.726;2022-09-04T16:37:20;4.30;;;4.20;;
2225;SDS011;1119;48.288;8.726;2022-09-04T16:39:58;4.60;;;4.40;;
2225;SDS011;1119;48.288;8.726;2022-09-04T16:42:40;4.57;;;4.37;;
2225;SDS011;1119;48.288;8.726;2022-09-04T16:45:15;4.60;;;4.40;;
2225;SDS011;1119;48.288;8.726;2022-09-04T16:47:48;4.50;;;4.30;;
2225;SDS011;1119;48.288;8.726;2022-09-04T16:50:23;4.47;;;4.27;;
2225;SDS011;1119;48.288;8.726;2022-09-04T16:55:43;3.87;;;3.67;;
2225;SDS011;1119;48.288;8.726;2022-09-04T16:58:25;4.60;;;4.43;;
2225;SDS011;1119;48.288;8.726;2022-09-04T17:01:12;3.97;;;3.77;;
2225;SDS011;1119;48.288;8.726;2022-09-04T17:03:49;4.17;;;4.00;;
2225;SDS011;1119;48.288;8.726;2022-09-04T17:06:39;4.37;;;4.07;;
2225;SDS011;1119;48.288;8.726;2022-09-04T17:09:27;4.57;;;4.27;;
2225;SDS011;1119;48.288;8.726;2022-09-04T17:12:12;3.80;;;3.70;;
2225;SDS011;1119;48.288;8.726;2022-09-04T17:14:53;4.57;;;4.27;;
2225;SDS011;1119;48.288;8.726;2022-09-04T17:17:27;4.23;;;4.03;;
2225;SDS011;1119;48.288;8.726;2022-09-04T17:20:05;3.80;;;3.60;;
2225;SDS011;1119;48.288;8.726;2022-09-04T17:22:39;4.60;;;4.30;;
2225;SDS011;1119;48.288;8.726;2022-09-04T17:25:16;4.30;;;4.00;;
2225;SDS011;1119;48.288;8.726;2022-09-04T17:27:58;3.80;;;3.70;;
2225;SDS011;1119;48.288;8.726;2022-09-04T17:30:53;4.37;;;4.17;;
2225;SDS011;1119;48.288;8.726;2022-09-04T17:33:22;4.07;;;3.87;;
2225;SDS011;1119;48.288;8.726;2022-09-04T17:35:59;4.53;;;3.80;;
2225;SDS011;1119;48.288;8.726;2022-09-04T17:38:34;4.43;;;4.23;;
2225;SDS011;1119;48.288;8.726;2022-09-04T17:41:11;4.37;;;4.17;;
2225;SDS011;1119;48.288;8.726;2022-09-04T17:43:57;4.60;;;4.40;;
2225;SDS011;1119;48.288;8.726;2022-09-04T17:46:36;3.70;;;3.60;;
2225;SDS011;1119;48.288;8.726;2022-09-04T17:49:12;3.87;;;3.70;;
2225;SDS011;1119;48.288;8.726;2022-09-04T17:51:48;5.10;;;4.07;;
2225;SDS011;1119;48.288;8.726;2022-09-04T17:54:20;7.00;;;4.87;;
2225;SDS011;1119;48.288;8.726;2022-09-04T17:56:49;4.20;;;4.00;;
2225;SDS011;1119;48.288;8.726;2022-09-04T17:59:22;4.77;;;4.57;;
2225;SDS011;1119;48.288;8.726;2022-09-04T18:02:01;6.17;;;5.83;;
2225;SDS011;1119;48.288;8.726;2022-09-04T18:04:37;4.50;;;4.30;;
2225;SDS011;1119;48.288;8.726;2022-09-04T18:07:13;5.07;;;4.87;;
2225;SDS011;1119;48.288;8.726;2022-09-04T18:09:56;4.93;;;4.70;;
2225;SDS011;1119;48.288;8.726;2022-09-04T18:12:35;4.17;;;3.97;;
2225;SDS011;1119;48.288;8.726;2022-09-04T18:15:10;3.47;;;3.37;;
2225;SDS011;1119;48.288;8.726;2022-09-04T18:17:48;3.80;;;3.70;;
2225;SDS011;1119;48.288;8.726;2022-09-04T18:20:22;4.00;;;3.80;;
2225;SDS011;1119;48.288;8.726;2022-09-04T18:23:13;4.00;;;3.80;;
2225;SDS011;1119;48.288;8.726;2022-09-04T18:25:57;4.53;;;4.30;;
2225;SDS011;1119;48.288;8.726;2022-09-04T18:28:32;4.90;;;4.50;;
2225;SDS011;1119;48.288;8.726;2022-09-04T18:31:12;4.80;;;4.50;;
2225;SDS011;1119;48.288;8.726;2022-09-04T18:33:52;5.17;;;4.87;;
2225;SDS011;1119;48.288;8.726;2022-09-04T18:36:30;5.27;;;4.97;;
2225;SDS011;1119;48.288;8.726;2022-09-04T18:39:04;5.00;;;4.70;;
2225;SDS011;1119;48.288;8.726;2022-09-04T18:41:51;4.80;;;4.60;;
2225;SDS011;1119;48.288;8.726;2022-09-04T18:44:38;4.60;;;4.40;;
2225;SDS011;1119;48.288;8.726;2022-09-04T18:47:11;4.90;;;4.60;;
2225;SDS011;1119;48.288;8.726;2022-09-04T18:49:49;4.37;;;4.17;;
2225;SDS011;1119;48.288;8.726;2022-09-04T18:52:21;4.60;;;4.40;;
2225;SDS011;1119;48.288;8.726;2022-09-04T18:54:56;5.13;;;4.63;;
2225;SDS011;1119;48.288;8.726;2022-09-04T18:57:29;4.60;;;4.40;;
2225;SDS011;1119;48.288;8.726;2022-09-04T19:00:05;4.77;;;4.47;;
2225;SDS011;1119;48.288;8.726;2022-09-04T19:02:42;4.77;;;4.33;;
2225;SDS011;1119;48.288;8.726;2022-09-04T19:05:14;4.20;;;4.00;;
2225;SDS011;1119;48.288;8.726;2022-09-04T19:07:45;4.87;;;4.57;;
2225;SDS011;1119;48.288;8.726;2022-09-04T19:10:19;4.57;;;4.37;;
2225;SDS011;1119;48.288;8.726;2022-09-04T19:12:52;4.60;;;4.30;;
2225;SDS011;1119;48.288;8.726;2022-09-04T19:15:28;4.80;;;4.60;;